Amur-2507 — XUEC6 — position and weather

sailwx.info

Track history (hours):
 
Tides and Currents Weather Stations Pressure Air Temp Water Temp Dewpoint Dewpoint Depression Visibility Wind Speed Wind Dir Waves Ship Positions

Amur-2507

Last reported at 2014-Aug-22 16:04 UTC. Time now 2014-Aug-28 23:22 UTC.
Position N 44°30' E 036°32'.

Length 115 m; draft 2.8 m.

Type: Cargo ship. MMSI: 515694000.

Date/timePositionNaut miles runAvg speedWind from/ knotsBaromVisibWave heightAir tempDewpointWater temp
2014-Aug-22 16:04N 44°30' E 036°32'4 8.1
2014-Aug-22 15:34N 44°26' E 036°31'8 8.1
2014-Aug-22 14:31N 44°18' E 036°30'  
2014-Aug-17 08:29N 41°54' E 036°23'132 7.8
2014-Aug-16 15:33N 44°06' E 036°27'8 7.9
2014-Aug-16 14:33N 44°14' E 036°27'8 8.0
2014-Aug-16 13:33N 44°22' E 036°27'8 7.9
2014-Aug-16 12:33N 44°30' E 036°28'8 7.6
2014-Aug-16 11:33N 44°38' E 036°28'7 7.5
2014-Aug-16 10:33N 44°45' E 036°28'  
Track history (hours):
 
Tides and Currents Weather Stations Pressure Air Temp Water Temp Dewpoint Dewpoint Depression Visibility Wind Speed Wind Dir Waves Ship Positions

Amur-2507

Last reported at 2014-Aug-22 16:04 UTC. Time now 2014-Aug-28 23:22 UTC.
Position N 44°30' E 036°32'.

Length 115 m; draft 2.8 m.

Type: Cargo ship. MMSI: 515694000.

Date/timePositionNaut miles runAvg speedWind from/ knotsBaromVisibWave heightAir tempDewpointWater temp
2014-Aug-22 16:04N 44°30' E 036°32'4 8.1
2014-Aug-22 15:34N 44°26' E 036°31'8 8.1
2014-Aug-22 14:31N 44°18' E 036°30'  
2014-Aug-17 08:29N 41°54' E 036°23'132 7.8
2014-Aug-16 15:33N 44°06' E 036°27'8 7.9
2014-Aug-16 14:33N 44°14' E 036°27'8 8.0
2014-Aug-16 13:33N 44°22' E 036°27'8 7.9
2014-Aug-16 12:33N 44°30' E 036°28'8 7.6
2014-Aug-16 11:33N 44°38' E 036°28'7 7.5
2014-Aug-16 10:33N 44°45' E 036°28'  

Dump ship's entire track history